createdAt,value
2023-07-16T00:00:58.172Z,53.18
2023-07-16T00:03:24.828Z,53.42
2023-07-16T00:05:52.352Z,53.30
2023-07-16T00:08:19.111Z,53.37
2023-07-16T00:10:45.773Z,53.54
2023-07-16T00:13:12.361Z,53.32
2023-07-16T00:15:39.005Z,53.47
2023-07-16T00:18:07.089Z,53.39
2023-07-16T00:20:34.039Z,53.29
2023-07-16T00:23:00.810Z,53.21
2023-07-16T00:25:27.410Z,53.32
2023-07-16T00:27:54.077Z,53.44
2023-07-16T00:30:20.799Z,53.52
2023-07-16T00:32:47.559Z,53.59
2023-07-16T00:35:14.184Z,53.54
2023-07-16T00:37:40.825Z,53.88
2023-07-16T00:40:08.168Z,53.58
2023-07-16T00:42:34.831Z,53.87
2023-07-16T00:45:01.637Z,53.55
2023-07-16T00:47:28.250Z,53.72
2023-07-16T00:49:55.072Z,54.07
2023-07-16T00:52:22.032Z,53.99
2023-07-16T00:54:48.861Z,53.74
2023-07-16T00:57:15.501Z,53.96
2023-07-16T00:59:42.166Z,54.09
2023-07-16T01:02:08.797Z,53.80
2023-07-16T01:04:35.456Z,54.04
2023-07-16T01:07:02.837Z,53.89
2023-07-16T01:09:30.539Z,53.97
2023-07-16T01:11:57.258Z,53.80
2023-07-16T01:14:23.935Z,53.92
2023-07-16T01:16:50.704Z,53.82
2023-07-16T01:19:17.442Z,54.13
2023-07-16T01:21:46.768Z,53.96
2023-07-16T01:24:25.692Z,54.02
2023-07-16T01:27:11.020Z,53.87
2023-07-16T01:29:38.316Z,53.85
2023-07-16T01:32:05.437Z,54.08
2023-07-16T01:34:35.287Z,54.08
2023-07-16T01:37:02.588Z,54.29
2023-07-16T01:39:29.319Z,54.21
2023-07-16T01:41:56.163Z,54.22
2023-07-16T01:44:22.792Z,54.32
2023-07-16T01:46:51.041Z,54.16
2023-07-16T01:49:17.782Z,54.19
2023-07-16T01:51:44.359Z,54.32
2023-07-16T01:54:11.025Z,54.60
2023-07-16T01:56:37.679Z,54.33
2023-07-16T01:59:04.267Z,54.27
2023-07-16T02:01:30.912Z,54.57
2023-07-16T02:03:57.618Z,54.35
2023-07-16T02:06:24.346Z,54.43
2023-07-16T02:08:51.001Z,54.28
2023-07-16T02:11:17.863Z,54.79
2023-07-16T02:13:44.567Z,54.70
2023-07-16T02:16:11.199Z,54.70
2023-07-16T02:18:37.835Z,54.64
2023-07-16T02:21:04.495Z,54.84
2023-07-16T02:23:31.179Z,54.97
2023-07-16T02:25:57.955Z,55.00
2023-07-16T02:28:24.787Z,54.80
2023-07-16T02:30:52.039Z,55.07
2023-07-16T02:33:18.751Z,54.86
2023-07-16T02:35:49.717Z,55.24
2023-07-16T02:38:16.735Z,55.22
2023-07-16T02:40:46.795Z,54.88
2023-07-16T02:43:13.451Z,55.10
2023-07-16T02:45:40.276Z,54.98
2023-07-16T02:48:07.213Z,55.22
2023-07-16T02:50:39.640Z,55.03
2023-07-16T02:53:06.611Z,55.25
2023-07-16T02:55:33.375Z,55.42
2023-07-16T02:58:00.025Z,55.25
2023-07-16T03:00:26.647Z,55.41
2023-07-16T03:02:54.832Z,55.24
2023-07-16T03:05:21.552Z,55.68
2023-07-16T03:07:48.149Z,55.34
2023-07-16T03:10:14.928Z,55.32
2023-07-16T03:12:41.766Z,55.43
2023-07-16T03:15:08.883Z,55.62
2023-07-16T03:17:35.787Z,55.57
2023-07-16T03:20:02.769Z,55.69
2023-07-16T03:22:29.372Z,55.35
2023-07-16T03:24:56.158Z,55.76
2023-07-16T03:27:24.191Z,55.79
2023-07-16T03:29:51.730Z,55.76
2023-07-16T03:32:18.542Z,55.38
2023-07-16T03:34:45.256Z,55.46
2023-07-16T03:37:11.923Z,55.84
2023-07-16T03:39:38.610Z,55.48
2023-07-16T03:42:05.440Z,55.95
2023-07-16T03:44:32.038Z,55.93
2023-07-16T03:46:58.801Z,56.20
2023-07-16T03:49:25.534Z,56.19
2023-07-16T03:51:52.123Z,56.03
2023-07-16T03:54:18.766Z,55.96
2023-07-16T03:56:45.363Z,56.24
2023-07-16T03:59:11.949Z,55.98
2023-07-16T04:01:38.771Z,56.41
2023-07-16T04:04:05.536Z,56.05
2023-07-16T04:06:32.225Z,56.23
2023-07-16T04:08:58.889Z,56.34
2023-07-16T04:11:25.516Z,56.39
2023-07-16T04:13:52.166Z,56.53
2023-07-16T04:16:19.179Z,56.49
2023-07-16T04:18:46.159Z,56.37
2023-07-16T04:21:12.830Z,56.30
2023-07-16T04:23:39.450Z,56.33
2023-07-16T04:26:06.069Z,56.52
2023-07-16T04:28:32.733Z,56.55
2023-07-16T04:30:59.389Z,56.47
2023-07-16T04:33:26.231Z,56.54
2023-07-16T04:35:52.921Z,56.58
2023-07-16T04:38:19.560Z,56.80
2023-07-16T04:40:46.136Z,56.71
2023-07-16T04:43:12.795Z,56.64
2023-07-16T04:45:41.412Z,56.37
2023-07-16T04:48:08.109Z,56.44
2023-07-16T04:50:34.714Z,56.81
2023-07-16T04:53:01.428Z,56.49
2023-07-16T04:55:28.122Z,56.89
2023-07-16T04:57:54.922Z,56.53
2023-07-16T05:00:21.758Z,56.76
2023-07-16T05:02:48.480Z,56.64
2023-07-16T05:05:15.120Z,56.54
2023-07-16T05:07:41.813Z,56.90
2023-07-16T05:10:08.813Z,56.98
2023-07-16T05:12:35.466Z,56.89
2023-07-16T05:15:02.216Z,56.46
2023-07-16T05:17:28.948Z,56.88
2023-07-16T05:19:55.710Z,56.96
2023-07-16T05:22:22.415Z,57.00
2023-07-16T05:24:49.255Z,56.95
2023-07-16T05:27:16.019Z,57.08
2023-07-16T05:29:42.800Z,57.09
2023-07-16T05:32:09.566Z,56.93
2023-07-16T05:34:36.542Z,56.72
2023-07-16T05:37:03.359Z,56.92
2023-07-16T05:39:30.079Z,56.88
2023-07-16T05:41:56.757Z,56.58
2023-07-16T05:44:23.586Z,56.80
2023-07-16T05:46:50.220Z,56.73
2023-07-16T05:49:16.876Z,56.91
2023-07-16T05:51:45.070Z,56.57
2023-07-16T05:54:11.658Z,57.02
2023-07-16T05:56:38.280Z,56.90
2023-07-16T05:59:05.077Z,56.65
2023-07-16T06:01:31.725Z,56.69
2023-07-16T06:03:58.476Z,56.63
2023-07-16T06:06:25.181Z,56.56
2023-07-16T06:08:51.814Z,56.67
2023-07-16T06:11:18.445Z,56.94
2023-07-16T06:13:45.157Z,56.70
2023-07-16T06:16:11.830Z,56.81
2023-07-16T06:18:38.516Z,56.79
2023-07-16T06:21:05.192Z,57.17
2023-07-16T06:23:32.154Z,56.91
2023-07-16T06:25:58.834Z,56.96
2023-07-16T06:28:25.581Z,57.13
2023-07-16T06:30:55.192Z,57.45
2023-07-16T06:33:21.800Z,57.42
2023-07-16T06:35:48.911Z,57.25
2023-07-16T06:38:15.653Z,57.27
2023-07-16T06:40:49.917Z,57.60
2023-07-16T06:43:17.201Z,57.46
2023-07-16T06:45:43.987Z,57.44
2023-07-16T06:48:10.703Z,57.47
2023-07-16T06:50:37.328Z,57.52
2023-07-16T06:53:03.921Z,57.42
2023-07-16T06:55:30.589Z,57.42
2023-07-16T06:57:57.357Z,57.45
2023-07-16T07:00:24.361Z,57.28
2023-07-16T07:02:51.186Z,57.88
2023-07-16T07:05:17.895Z,58.31
2023-07-16T07:07:46.381Z,58.35
2023-07-16T07:10:13.995Z,58.68
2023-07-16T07:12:40.788Z,58.95
2023-07-16T07:15:07.974Z,58.99
2023-07-16T07:17:34.777Z,58.92
2023-07-16T07:20:01.801Z,59.13
2023-07-16T07:22:28.466Z,58.96
2023-07-16T07:24:55.206Z,58.69
2023-07-16T07:27:21.853Z,58.39
2023-07-16T07:29:53.126Z,58.35
2023-07-16T07:32:23.138Z,58.65
2023-07-16T07:34:49.865Z,58.69
2023-07-16T07:37:16.522Z,58.09
2023-07-16T07:39:43.375Z,58.31
2023-07-16T07:42:11.320Z,58.25
2023-07-16T07:44:40.193Z,58.24
2023-07-16T07:47:07.063Z,58.46
2023-07-16T07:49:34.345Z,58.02
2023-07-16T07:52:01.292Z,57.86
2023-07-16T07:54:27.959Z,57.53
2023-07-16T07:56:54.647Z,57.92
2023-07-16T07:59:21.269Z,57.46
2023-07-16T08:01:48.103Z,57.56
2023-07-16T08:04:14.912Z,57.10
2023-07-16T08:06:41.607Z,56.79
2023-07-16T08:09:08.344Z,56.48
2023-07-16T08:11:34.963Z,56.27
2023-07-16T08:14:01.540Z,56.68
2023-07-16T08:16:28.330Z,56.25
2023-07-16T08:18:54.995Z,56.42
2023-07-16T08:21:21.720Z,56.29
2023-07-16T08:23:49.679Z,56.10
2023-07-16T08:26:16.670Z,55.75
2023-07-16T08:28:43.491Z,55.83
2023-07-16T08:31:11.265Z,55.74
2023-07-16T08:33:37.923Z,55.84
2023-07-16T08:36:04.536Z,55.46
2023-07-16T08:38:31.268Z,55.55
2023-07-16T08:40:57.886Z,55.29
2023-07-16T08:43:24.584Z,55.19
2023-07-16T08:45:51.308Z,54.85
2023-07-16T08:48:18.582Z,54.37
2023-07-16T08:50:46.980Z,54.27
2023-07-16T08:53:13.754Z,54.30
2023-07-16T08:55:40.370Z,54.20
2023-07-16T08:58:07.180Z,53.99
2023-07-16T09:00:33.845Z,53.92
2023-07-16T09:03:00.593Z,53.81
2023-07-16T09:05:38.683Z,53.43
2023-07-16T09:08:06.316Z,53.04
2023-07-16T09:10:33.009Z,53.01
2023-07-16T09:13:01.607Z,52.58
2023-07-16T09:15:29.262Z,52.38
2023-07-16T09:17:56.328Z,52.41
2023-07-16T09:20:24.781Z,52.20
2023-07-16T09:22:54.190Z,52.18
2023-07-16T09:25:20.908Z,52.10
2023-07-16T09:27:49.542Z,51.86
2023-07-16T09:30:16.484Z,51.71
2023-07-16T09:32:43.294Z,51.47
2023-07-16T09:35:13.551Z,51.64
2023-07-16T09:37:40.484Z,50.75
2023-07-16T09:40:13.277Z,51.04
2023-07-16T09:42:40.798Z,50.63
2023-07-16T09:45:09.124Z,50.50
2023-07-16T09:47:36.139Z,50.27
2023-07-16T09:50:03.462Z,49.82
2023-07-16T09:52:30.101Z,50.14
2023-07-16T09:54:56.829Z,49.95
2023-07-16T09:57:24.464Z,50.08
2023-07-16T09:59:52.646Z,49.32
2023-07-16T10:02:19.539Z,49.40
2023-07-16T10:04:46.304Z,48.96
2023-07-16T10:07:23.068Z,47.93
2023-07-16T10:09:57.488Z,48.07
2023-07-16T10:12:24.867Z,47.80
2023-07-16T10:14:52.410Z,47.57
2023-07-16T10:17:19.073Z,47.63
2023-07-16T10:19:53.058Z,47.34
2023-07-16T10:22:21.173Z,47.48
2023-07-16T10:24:52.501Z,47.60
2023-07-16T10:27:27.408Z,46.79
2023-07-16T10:29:56.098Z,47.08
2023-07-16T10:32:22.767Z,46.35
2023-07-16T10:34:49.420Z,46.46
2023-07-16T10:37:16.028Z,46.87
2023-07-16T10:39:47.385Z,47.18
2023-07-16T10:42:14.121Z,46.33
2023-07-16T10:44:41.238Z,46.32
2023-07-16T10:47:07.839Z,46.16
2023-07-16T10:49:34.624Z,46.56
2023-07-16T10:52:01.542Z,45.64
2023-07-16T10:54:28.281Z,45.64
2023-07-16T10:56:55.220Z,46.04
2023-07-16T10:59:21.827Z,45.59
2023-07-16T11:01:48.548Z,44.96
2023-07-16T11:04:15.275Z,44.51
2023-07-16T11:06:42.088Z,44.62
2023-07-16T11:09:11.819Z,44.21
2023-07-16T11:11:38.606Z,44.18
2023-07-16T11:14:08.406Z,44.00
2023-07-16T11:16:38.623Z,44.02
2023-07-16T11:19:06.857Z,44.39
2023-07-16T11:21:36.563Z,43.78
2023-07-16T11:24:16.530Z,43.63
2023-07-16T11:26:52.724Z,43.75
2023-07-16T11:29:19.482Z,43.46
2023-07-16T11:31:46.134Z,43.71
2023-07-16T11:34:16.034Z,42.84
2023-07-16T11:36:42.959Z,42.06
2023-07-16T11:39:11.648Z,42.00
2023-07-16T11:41:38.251Z,41.20
2023-07-16T11:44:05.636Z,41.34
2023-07-16T11:46:33.172Z,41.49
2023-07-16T11:49:00.196Z,41.51
2023-07-16T11:51:26.846Z,41.16
2023-07-16T11:53:53.618Z,41.29
2023-07-16T11:56:20.299Z,40.80
2023-07-16T11:58:47.179Z,40.30
2023-07-16T12:01:15.499Z,40.23
2023-07-16T12:03:42.221Z,40.09
2023-07-16T12:06:09.705Z,40.44
2023-07-16T12:08:36.408Z,40.04
2023-07-16T12:11:03.269Z,40.26
2023-07-16T12:13:30.030Z,40.01
2023-07-16T12:15:56.663Z,39.05
2023-07-16T12:18:23.254Z,39.64
2023-07-16T12:20:49.976Z,39.33
2023-07-16T12:23:16.577Z,39.21
2023-07-16T12:25:44.610Z,39.49
2023-07-16T12:28:11.329Z,39.36
2023-07-16T12:30:38.022Z,38.30
2023-07-16T12:33:05.493Z,37.93
2023-07-16T12:35:32.280Z,37.38
2023-07-16T12:37:59.552Z,37.57
2023-07-16T12:40:26.876Z,37.49
2023-07-16T12:42:53.515Z,36.92
2023-07-16T12:45:20.264Z,36.70
2023-07-16T12:47:46.951Z,35.79
2023-07-16T12:50:14.202Z,35.39
2023-07-16T12:52:40.797Z,35.84
2023-07-16T12:55:07.531Z,35.89
2023-07-16T12:57:34.206Z,35.48
2023-07-16T13:00:00.924Z,34.66
2023-07-16T13:02:27.645Z,34.89
2023-07-16T13:04:55.357Z,33.56
2023-07-16T13:07:21.962Z,33.62
2023-07-16T13:09:48.620Z,33.71
2023-07-16T13:12:15.318Z,33.58
2023-07-16T13:14:41.961Z,34.36
2023-07-16T13:17:08.600Z,34.52
2023-07-16T13:19:35.567Z,35.20
2023-07-16T13:22:02.304Z,35.09
2023-07-16T13:24:29.269Z,35.37
2023-07-16T13:26:56.024Z,35.72
2023-07-16T13:29:22.720Z,36.09
2023-07-16T13:31:49.294Z,36.22
2023-07-16T13:34:15.999Z,36.46
2023-07-16T13:36:42.605Z,36.68
2023-07-16T13:39:09.221Z,37.07
2023-07-16T13:41:36.203Z,37.14
2023-07-16T13:44:02.860Z,37.44
2023-07-16T13:46:29.619Z,37.26
2023-07-16T13:48:59.036Z,37.77
2023-07-16T13:51:26.688Z,38.21
2023-07-16T13:53:53.429Z,38.11
2023-07-16T13:56:20.402Z,38.58
2023-07-16T13:58:47.354Z,38.40
2023-07-16T14:01:13.996Z,38.45
2023-07-16T14:03:40.826Z,38.59
2023-07-16T14:06:07.506Z,38.64
2023-07-16T14:08:35.282Z,38.87
2023-07-16T14:11:02.231Z,38.67
2023-07-16T14:13:28.853Z,39.13
2023-07-16T14:15:55.546Z,39.06
2023-07-16T14:18:22.272Z,39.42
2023-07-16T14:20:48.903Z,39.30
2023-07-16T14:23:15.550Z,39.74
2023-07-16T14:25:42.299Z,39.76
2023-07-16T14:28:08.980Z,39.94
2023-07-16T14:30:35.701Z,40.15
2023-07-16T14:33:05.451Z,39.98
2023-07-16T14:35:37.293Z,40.05
2023-07-16T14:38:04.865Z,40.01
2023-07-16T14:40:32.138Z,40.51
2023-07-16T14:42:58.781Z,40.42
2023-07-16T14:45:26.104Z,40.26
2023-07-16T14:47:53.145Z,40.68
2023-07-16T14:50:19.881Z,40.72
2023-07-16T14:52:46.494Z,40.37
2023-07-16T14:55:13.356Z,40.57
2023-07-16T14:57:40.027Z,40.59
2023-07-16T15:00:08.260Z,40.98
2023-07-16T15:02:35.112Z,40.56
2023-07-16T15:05:01.772Z,40.71
2023-07-16T15:07:28.597Z,41.04
2023-07-16T15:09:56.110Z,40.85
2023-07-16T15:12:22.712Z,41.33
2023-07-16T15:14:49.377Z,41.40
2023-07-16T15:17:16.065Z,41.32
2023-07-16T15:19:42.655Z,41.45
2023-07-16T15:22:10.988Z,41.27
2023-07-16T15:24:38.033Z,41.26
2023-07-16T15:27:04.888Z,41.28
2023-07-16T15:29:32.237Z,41.22
2023-07-16T15:32:01.465Z,41.77
2023-07-16T15:34:29.549Z,41.42
2023-07-16T15:36:56.163Z,41.18
2023-07-16T15:39:22.921Z,41.84
2023-07-16T15:41:49.491Z,41.45
2023-07-16T15:44:16.553Z,41.81
2023-07-16T15:46:44.839Z,41.60
2023-07-16T15:49:12.152Z,41.42
2023-07-16T15:51:42.178Z,41.47
2023-07-16T15:54:09.001Z,41.47
2023-07-16T15:56:35.642Z,41.64
2023-07-16T15:59:02.293Z,41.77
2023-07-16T16:01:29.014Z,42.28
2023-07-16T16:03:55.712Z,42.12
2023-07-16T16:06:22.436Z,42.25
2023-07-16T16:08:49.221Z,42.23
2023-07-16T16:11:16.391Z,41.99
2023-07-16T16:13:43.185Z,42.16
2023-07-16T16:16:09.823Z,42.53
2023-07-16T16:18:36.774Z,42.45
2023-07-16T16:21:03.740Z,42.64
2023-07-16T16:23:30.478Z,42.65
2023-07-16T16:25:57.213Z,42.33
2023-07-16T16:28:24.256Z,42.81
2023-07-16T16:30:51.126Z,42.37
2023-07-16T16:33:18.461Z,42.54
2023-07-16T16:35:45.164Z,42.84
2023-07-16T16:38:12.002Z,42.60
2023-07-16T16:40:43.121Z,42.65
2023-07-16T16:43:09.873Z,42.58
2023-07-16T16:45:40.670Z,43.21
2023-07-16T16:48:08.256Z,42.72
2023-07-16T16:50:34.962Z,42.74
2023-07-16T16:53:01.639Z,42.73
2023-07-16T16:55:28.256Z,42.72
2023-07-16T16:57:54.999Z,42.84
2023-07-16T17:00:21.898Z,43.11
2023-07-16T17:02:48.784Z,43.08
2023-07-16T17:05:15.850Z,42.83
2023-07-16T17:07:42.758Z,42.82
2023-07-16T17:10:09.556Z,43.27
2023-07-16T17:12:38.581Z,43.24
2023-07-16T17:15:06.486Z,43.16
2023-07-16T17:17:33.094Z,42.77
2023-07-16T17:19:59.744Z,42.84
2023-07-16T17:22:28.328Z,43.24
2023-07-16T17:24:55.156Z,42.84
2023-07-16T17:27:22.337Z,43.06
2023-07-16T17:29:50.098Z,42.67
2023-07-16T17:32:16.732Z,43.08
2023-07-16T17:34:43.512Z,42.87
2023-07-16T17:37:11.440Z,43.28
2023-07-16T17:39:38.314Z,43.34
2023-07-16T17:42:05.228Z,43.38
2023-07-16T17:44:32.071Z,43.39
2023-07-16T17:46:58.977Z,43.30
2023-07-16T17:49:26.343Z,43.30
2023-07-16T17:51:55.159Z,43.20
2023-07-16T17:54:25.007Z,42.91
2023-07-16T17:56:53.465Z,43.17
2023-07-16T17:59:21.237Z,43.13
2023-07-16T18:01:48.381Z,43.18
2023-07-16T18:04:15.482Z,43.16
2023-07-16T18:06:43.018Z,43.62
2023-07-16T18:09:09.605Z,43.64
2023-07-16T18:11:36.184Z,43.45
2023-07-16T18:14:03.006Z,43.21
2023-07-16T18:16:30.457Z,43.29
2023-07-16T18:18:57.533Z,43.48
2023-07-16T18:21:31.999Z,43.71
2023-07-16T18:24:01.163Z,43.42
2023-07-16T18:26:28.752Z,43.61
2023-07-16T18:28:55.566Z,43.84
2023-07-16T18:31:22.691Z,43.54
2023-07-16T18:33:51.013Z,43.53
2023-07-16T18:36:17.912Z,44.06
2023-07-16T18:38:44.816Z,43.91
2023-07-16T18:41:11.692Z,43.74
2023-07-16T18:43:38.288Z,43.61
2023-07-16T18:46:04.905Z,43.93
2023-07-16T18:48:32.363Z,44.31
2023-07-16T18:51:00.233Z,43.98
2023-07-16T18:53:28.900Z,44.14
2023-07-16T18:55:55.689Z,43.97
2023-07-16T18:58:22.355Z,44.66
2023-07-16T19:00:49.370Z,44.33
2023-07-16T19:03:16.041Z,44.50
2023-07-16T19:05:46.869Z,44.53
2023-07-16T19:08:13.812Z,45.16
2023-07-16T19:10:41.306Z,44.84
2023-07-16T19:13:07.959Z,45.05
2023-07-16T19:15:34.599Z,45.13
2023-07-16T19:18:02.679Z,45.59
2023-07-16T19:20:29.474Z,45.82
2023-07-16T19:22:56.311Z,45.76
2023-07-16T19:25:23.139Z,45.69
2023-07-16T19:27:49.751Z,45.91
2023-07-16T19:30:16.571Z,45.86
2023-07-16T19:32:43.366Z,45.68
2023-07-16T19:35:09.980Z,45.66
2023-07-16T19:37:36.738Z,46.02
2023-07-16T19:40:05.707Z,45.65
2023-07-16T19:42:33.367Z,45.76
2023-07-16T19:45:00.014Z,45.80
2023-07-16T19:47:26.877Z,46.14
2023-07-16T19:49:55.141Z,46.24
2023-07-16T19:52:21.778Z,45.99
2023-07-16T19:54:48.519Z,46.43
2023-07-16T19:57:15.097Z,46.10
2023-07-16T19:59:41.673Z,46.12
2023-07-16T20:02:08.421Z,46.31
2023-07-16T20:04:35.075Z,46.51
2023-07-16T20:07:11.243Z,46.60
2023-07-16T20:09:38.869Z,46.67
2023-07-16T20:12:05.705Z,46.79
2023-07-16T20:14:32.348Z,46.47
2023-07-16T20:16:59.152Z,46.92
2023-07-16T20:19:25.868Z,46.91
2023-07-16T20:21:54.895Z,46.96
2023-07-16T20:24:21.609Z,46.88
2023-07-16T20:26:48.265Z,46.93
2023-07-16T20:29:15.228Z,46.79
2023-07-16T20:31:44.448Z,46.83
2023-07-16T20:34:11.100Z,47.08
2023-07-16T20:36:38.035Z,47.25
2023-07-16T20:39:06.040Z,47.44
2023-07-16T20:41:32.803Z,47.47
2023-07-16T20:43:59.411Z,47.47
2023-07-16T20:46:26.459Z,47.60
2023-07-16T20:48:53.194Z,47.78
2023-07-16T20:51:19.949Z,47.77
2023-07-16T20:53:48.527Z,47.81
2023-07-16T20:56:17.822Z,48.12
2023-07-16T20:58:44.429Z,48.17
2023-07-16T21:01:11.337Z,48.17
2023-07-16T21:03:38.282Z,48.20
2023-07-16T21:06:05.341Z,48.48
2023-07-16T21:08:31.971Z,48.37
2023-07-16T21:10:58.588Z,48.67
2023-07-16T21:13:25.486Z,48.61
2023-07-16T21:15:52.384Z,48.62
2023-07-16T21:18:19.241Z,48.69
2023-07-16T21:20:46.238Z,48.71
2023-07-16T21:23:13.039Z,48.92
2023-07-16T21:25:42.304Z,48.97
2023-07-16T21:28:10.341Z,48.94
2023-07-16T21:30:37.526Z,49.17
2023-07-16T21:33:04.302Z,49.24
2023-07-16T21:35:32.044Z,49.24
2023-07-16T21:37:58.827Z,49.16
2023-07-16T21:40:25.417Z,49.27
2023-07-16T21:42:52.225Z,49.25
2023-07-16T21:45:19.004Z,49.27
2023-07-16T21:47:45.793Z,49.22
2023-07-16T21:50:12.589Z,49.32
2023-07-16T21:52:42.442Z,49.41
2023-07-16T21:55:09.436Z,49.53
2023-07-16T21:57:36.143Z,49.26
2023-07-16T22:00:06.068Z,49.35
2023-07-16T22:02:33.663Z,49.61
2023-07-16T22:05:01.207Z,49.64
2023-07-16T22:07:28.045Z,49.56
2023-07-16T22:09:54.732Z,49.79
2023-07-16T22:12:21.373Z,49.82
2023-07-16T22:14:48.045Z,49.82
2023-07-16T22:17:14.717Z,49.77
2023-07-16T22:19:41.373Z,49.86
2023-07-16T22:22:08.154Z,49.92
2023-07-16T22:24:34.738Z,49.94
2023-07-16T22:27:01.466Z,50.15
2023-07-16T22:29:28.088Z,49.93
2023-07-16T22:31:54.728Z,50.18
2023-07-16T22:34:21.720Z,50.05
2023-07-16T22:36:48.408Z,50.10
2023-07-16T22:39:15.360Z,50.34
2023-07-16T22:41:42.068Z,50.35
2023-07-16T22:44:08.840Z,50.19
2023-07-16T22:46:35.743Z,50.65
2023-07-16T22:49:03.226Z,50.45
2023-07-16T22:51:29.962Z,50.48
2023-07-16T22:53:56.601Z,50.63
2023-07-16T22:56:24.637Z,50.65
2023-07-16T22:58:51.522Z,50.83
2023-07-16T23:01:18.355Z,51.06
2023-07-16T23:03:45.944Z,50.80
2023-07-16T23:06:12.586Z,50.88
2023-07-16T23:08:39.195Z,50.98
2023-07-16T23:11:06.094Z,51.20
2023-07-16T23:13:32.860Z,50.87
2023-07-16T23:15:59.523Z,50.92
2023-07-16T23:18:26.693Z,51.00
2023-07-16T23:20:55.306Z,51.10
2023-07-16T23:23:22.473Z,51.04
2023-07-16T23:25:50.027Z,51.15
2023-07-16T23:28:16.925Z,51.28
2023-07-16T23:30:43.490Z,51.36
2023-07-16T23:33:10.222Z,51.46
2023-07-16T23:35:37.092Z,51.53
2023-07-16T23:38:03.875Z,51.59
2023-07-16T23:40:30.720Z,51.53
2023-07-16T23:42:57.346Z,51.45
2023-07-16T23:45:23.987Z,51.55
2023-07-16T23:47:50.804Z,51.51
2023-07-16T23:50:17.610Z,51.58
2023-07-16T23:52:44.329Z,51.50
2023-07-16T23:55:12.240Z,51.74
2023-07-16T23:57:39.851Z,51.69
